Share

Thompson, ND (58278)

Grand Forks International (KGFK) Elev 843 ft | 47.95 °N, 97.18 °W | Change Station
Active Advisory: Flood Warning

Current weather conditions updated 6 minutes ago

Partly Cloudy
Partly Cloudy
62 °F
Feels Like 62 °F
N
20
Wind Variable Wind from West
Gusts 30 mph
Sunrise 6:31 AM
Sunset 8:24 PM
Moon Waning Gibbous

Today is forecast to be Much Warmer than yesterday.

Pressure 29.86 in
Visibility 10.0 miles
Clouds Few 5500 ft
Dew Point 39 °F
Humidity 43%
Rainfall 0.00 in
Snow Depth Not available.
UV 5 out of 16
Pollen 9.40 out of 12
Air Quality Not available.
Flu Activity Sporadic
METAR KGFK 192053Z 27017G26KT 10SM FEW055 17/04 A2985 RMK AO2 PK WND 27027/2009 SLP112 T01670039 51013

More Conditions Fewer Conditions

Pressure 29.86 in
Visibility 10.0 miles
Clouds Few 5500 ft
Dew Point 39 °F
Humidity 43%
Rainfall 0.00 in
Snow Depth Not available.
UV 5 out of 16
Pollen 9.40 out of 12
Air Quality Not available.
Flu Activity Sporadic
METAR KGFK 192053Z 27017G26KT 10SM FEW055 17/04 A2985 RMK AO2 PK WND 27027/2009 SLP112 T01670039 51013

More Conditions Fewer Conditions

10-Day Weather Forecast

Almanac

Astronomy

Apr. 19, 2014 Rise Set
Actual Time 6:31 AM CDT 8:24 PM CDT
Civil Twilight 5:58 AM CDT 8:57 PM CDT
Nautical Twilight 5:18 AM CDT 9:37 PM CDT
Astronomical Twilight 4:33 AM CDT 10:22 PM CDT
Moon 12:19 AM CDT 9:41 AM CDT
Length of Visible Light 14h 58m
Length of Day
13h 52m
Tomorrow will be 3m 15s longer.
Waning Gibbous, 77% of the Moon is Illuminated
Today
Waning Gibbous
Apr 22
Last Quarter
Apr 29
New
May 6
First Quarter
May 14
Full

Today's Extremes

State Highs State Lows

Community

  • Skirting the Horizon
    Skirting the Horizon
  • Piriapolis
    Piriapolis
  • A Glorious Morning
    A Glorious Morning
  • Tender Rays Of Hope
    Tender Rays Of Hope
  • Bleeding Hearts
    Bleeding Hearts

WunderPhotos

Upload Photos

1,702,892 photos uploaded!

WunderBlogs® & News

Nearby

Snow Depth

Station Depth Elevation
No new snow has been reported.

Coastal Water Temperatures

Place Temperature
No Stations Reporting

Earthquake Activity

City Distance Mag. Time & Date
No recent earthquake activity has been reported nearby.
Minimum magnitude displayed is 2.5.

Nearby Weather Stations

There are no personal weather stations in this area.

What do you think?

We're not finished. Please let us know what you like, what you don't like, and what you are still missing.